sensor_id;sensor_type;location;lat;lon;timestamp;temperature;humidity
32753;DHT22;19121;52.428;10.816;2023-02-11T00:01:05;19.00;37.80
32753;DHT22;19121;52.428;10.816;2023-02-11T00:03:31;19.00;37.80
32753;DHT22;19121;52.428;10.816;2023-02-11T00:06:00;19.00;38.40
32753;DHT22;19121;52.428;10.816;2023-02-11T00:08:25;19.00;37.80
32753;DHT22;19121;52.428;10.816;2023-02-11T00:10:52;19.00;37.80
32753;DHT22;19121;52.428;10.816;2023-02-11T00:13:18;19.00;37.80
32753;DHT22;19121;52.428;10.816;2023-02-11T00:15:43;19.00;37.80
32753;DHT22;19121;52.428;10.816;2023-02-11T00:18:09;19.00;37.80
32753;DHT22;19121;52.428;10.816;2023-02-11T00:20:34;19.00;37.80
32753;DHT22;19121;52.428;10.816;2023-02-11T00:23:02;19.00;37.80
32753;DHT22;19121;52.428;10.816;2023-02-11T00:25:27;19.00;37.80
32753;DHT22;19121;52.428;10.816;2023-02-11T00:27:53;19.00;37.80
32753;DHT22;19121;52.428;10.816;2023-02-11T00:30:18;19.00;37.80
32753;DHT22;19121;52.428;10.816;2023-02-11T00:32:44;19.00;38.40
32753;DHT22;19121;52.428;10.816;2023-02-11T00:35:09;19.00;37.80
32753;DHT22;19121;52.428;10.816;2023-02-11T00:37:35;19.00;37.80
32753;DHT22;19121;52.428;10.816;2023-02-11T00:40:01;18.90;37.80
32753;DHT22;19121;52.428;10.816;2023-02-11T00:42:27;18.90;37.70
32753;DHT22;19121;52.428;10.816;2023-02-11T00:44:52;18.90;37.80
32753;DHT22;19121;52.428;10.816;2023-02-11T00:47:18;18.90;37.80
32753;DHT22;19121;52.428;10.816;2023-02-11T00:49:43;19.00;37.80
32753;DHT22;19121;52.428;10.816;2023-02-11T00:52:08;18.90;37.80
32753;DHT22;19121;52.428;10.816;2023-02-11T00:54:34;18.90;37.80
32753;DHT22;19121;52.428;10.816;2023-02-11T00:56:59;18.90;37.80
32753;DHT22;19121;52.428;10.816;2023-02-11T00:59:25;18.90;37.80
32753;DHT22;19121;52.428;10.816;2023-02-11T01:01:51;18.90;37.80
32753;DHT22;19121;52.428;10.816;2023-02-11T01:04:16;18.90;37.80
32753;DHT22;19121;52.428;10.816;2023-02-11T01:06:41;18.90;37.80
32753;DHT22;19121;52.428;10.816;2023-02-11T01:09:07;18.90;37.80
32753;DHT22;19121;52.428;10.816;2023-02-11T01:11:32;18.90;37.80
32753;DHT22;19121;52.428;10.816;2023-02-11T01:13:58;18.90;37.80
32753;DHT22;19121;52.428;10.816;2023-02-11T01:16:23;18.90;37.80
32753;DHT22;19121;52.428;10.816;2023-02-11T01:18:48;18.90;37.90
32753;DHT22;19121;52.428;10.816;2023-02-11T01:21:14;18.80;37.80
32753;DHT22;19121;52.428;10.816;2023-02-11T01:23:40;18.90;37.90
32753;DHT22;19121;52.428;10.816;2023-02-11T01:26:06;18.90;37.90
32753;DHT22;19121;52.428;10.816;2023-02-11T01:28:31;18.90;37.80
32753;DHT22;19121;52.428;10.816;2023-02-11T01:30:57;18.90;37.90
32753;DHT22;19121;52.428;10.816;2023-02-11T01:33:23;18.80;37.80
32753;DHT22;19121;52.428;10.816;2023-02-11T01:35:49;18.90;37.80
32753;DHT22;19121;52.428;10.816;2023-02-11T01:38:22;18.90;37.90
32753;DHT22;19121;52.428;10.816;2023-02-11T01:40:49;18.90;37.90
32753;DHT22;19121;52.428;10.816;2023-02-11T01:43:14;18.80;37.80
32753;DHT22;19121;52.428;10.816;2023-02-11T01:48:12;18.80;37.80
32753;DHT22;19121;52.428;10.816;2023-02-11T01:50:39;18.80;37.80
32753;DHT22;19121;52.428;10.816;2023-02-11T01:53:05;18.80;37.80
32753;DHT22;19121;52.428;10.816;2023-02-11T01:55:50;18.80;37.80
32753;DHT22;19121;52.428;10.816;2023-02-11T01:58:34;18.80;37.80
32753;DHT22;19121;52.428;10.816;2023-02-11T02:01:02;18.80;37.80
32753;DHT22;19121;52.428;10.816;2023-02-11T02:03:29;18.80;37.90
32753;DHT22;19121;52.428;10.816;2023-02-11T02:06:09;18.80;37.90
32753;DHT22;19121;52.428;10.816;2023-02-11T02:08:39;18.80;37.90
32753;DHT22;19121;52.428;10.816;2023-02-11T02:11:05;18.80;37.90
32753;DHT22;19121;52.428;10.816;2023-02-11T02:13:31;18.80;37.90
32753;DHT22;19121;52.428;10.816;2023-02-11T02:16:04;18.80;37.90
32753;DHT22;19121;52.428;10.816;2023-02-11T02:31:36;18.80;37.90
32753;DHT22;19121;52.428;10.816;2023-02-11T02:34:08;18.80;37.90
32753;DHT22;19121;52.428;10.816;2023-02-11T02:36:42;18.70;37.90
32753;DHT22;19121;52.428;10.816;2023-02-11T02:39:13;18.70;37.90
32753;DHT22;19121;52.428;10.816;2023-02-11T02:41:42;18.80;38.00
32753;DHT22;19121;52.428;10.816;2023-02-11T02:44:08;18.70;37.90
32753;DHT22;19121;52.428;10.816;2023-02-11T02:46:33;18.70;37.90
32753;DHT22;19121;52.428;10.816;2023-02-11T02:48:59;18.70;37.90
32753;DHT22;19121;52.428;10.816;2023-02-11T02:56:18;18.70;37.90
32753;DHT22;19121;52.428;10.816;2023-02-11T03:03:45;18.70;37.90
32753;DHT22;19121;52.428;10.816;2023-02-11T03:06:17;18.70;38.00
32753;DHT22;19121;52.428;10.816;2023-02-11T03:08:46;18.70;38.00
32753;DHT22;19121;52.428;10.816;2023-02-11T03:11:16;18.70;38.00
32753;DHT22;19121;52.428;10.816;2023-02-11T03:13:42;18.70;38.00
32753;DHT22;19121;52.428;10.816;2023-02-11T03:16:10;18.70;38.10
32753;DHT22;19121;52.428;10.816;2023-02-11T03:18:38;18.70;38.00
32753;DHT22;19121;52.428;10.816;2023-02-11T03:21:05;18.70;38.00
32753;DHT22;19121;52.428;10.816;2023-02-11T03:26:27;18.70;38.00
32753;DHT22;19121;52.428;10.816;2023-02-11T03:28:57;18.70;38.00
32753;DHT22;19121;52.428;10.816;2023-02-11T03:31:27;18.70;38.10
32753;DHT22;19121;52.428;10.816;2023-02-11T03:33:58;18.70;38.10
32753;DHT22;19121;52.428;10.816;2023-02-11T03:36:31;18.70;38.10
32753;DHT22;19121;52.428;10.816;2023-02-11T03:38:57;18.70;38.10
32753;DHT22;19121;52.428;10.816;2023-02-11T03:41:24;18.70;38.10
32753;DHT22;19121;52.428;10.816;2023-02-11T03:43:52;18.60;38.10
32753;DHT22;19121;52.428;10.816;2023-02-11T03:46:19;18.70;38.10
32753;DHT22;19121;52.428;10.816;2023-02-11T03:48:51;18.70;38.10
32753;DHT22;19121;52.428;10.816;2023-02-11T03:51:17;18.70;38.10
32753;DHT22;19121;52.428;10.816;2023-02-11T03:53:44;18.60;38.10
32753;DHT22;19121;52.428;10.816;2023-02-11T03:56:12;18.60;38.10
32753;DHT22;19121;52.428;10.816;2023-02-11T03:58:39;18.60;38.10
32753;DHT22;19121;52.428;10.816;2023-02-11T04:01:05;18.60;38.10
32753;DHT22;19121;52.428;10.816;2023-02-11T04:03:33;18.60;38.10
32753;DHT22;19121;52.428;10.816;2023-02-11T04:05:58;18.60;38.10
32753;DHT22;19121;52.428;10.816;2023-02-11T04:08:23;18.60;38.10
32753;DHT22;19121;52.428;10.816;2023-02-11T04:10:49;18.60;38.10
32753;DHT22;19121;52.428;10.816;2023-02-11T04:13:14;18.60;38.10
32753;DHT22;19121;52.428;10.816;2023-02-11T04:15:40;18.60;38.10
32753;DHT22;19121;52.428;10.816;2023-02-11T04:18:05;18.60;38.10
32753;DHT22;19121;52.428;10.816;2023-02-11T04:20:30;18.60;38.10
32753;DHT22;19121;52.428;10.816;2023-02-11T04:22:56;18.60;38.20
32753;DHT22;19121;52.428;10.816;2023-02-11T04:25:21;18.60;38.20
32753;DHT22;19121;52.428;10.816;2023-02-11T04:27:47;18.60;38.10
32753;DHT22;19121;52.428;10.816;2023-02-11T04:30:12;18.60;38.20
32753;DHT22;19121;52.428;10.816;2023-02-11T04:32:38;18.60;38.20
32753;DHT22;19121;52.428;10.816;2023-02-11T04:35:03;18.60;38.20
32753;DHT22;19121;52.428;10.816;2023-02-11T04:37:29;18.60;38.20
32753;DHT22;19121;52.428;10.816;2023-02-11T04:39:54;18.60;38.20
32753;DHT22;19121;52.428;10.816;2023-02-11T04:42:20;18.60;38.20
32753;DHT22;19121;52.428;10.816;2023-02-11T04:44:45;18.50;38.20
32753;DHT22;19121;52.428;10.816;2023-02-11T04:47:10;18.60;38.20
32753;DHT22;19121;52.428;10.816;2023-02-11T04:49:37;18.60;38.20
32753;DHT22;19121;52.428;10.816;2023-02-11T04:52:03;18.60;38.20
32753;DHT22;19121;52.428;10.816;2023-02-11T04:54:28;18.60;38.20
32753;DHT22;19121;52.428;10.816;2023-02-11T04:56:53;18.60;38.20
32753;DHT22;19121;52.428;10.816;2023-02-11T04:59:19;18.60;38.20
32753;DHT22;19121;52.428;10.816;2023-02-11T05:01:44;18.60;38.30
32753;DHT22;19121;52.428;10.816;2023-02-11T05:04:10;18.60;38.20
32753;DHT22;19121;52.428;10.816;2023-02-11T05:06:36;18.60;38.20
32753;DHT22;19121;52.428;10.816;2023-02-11T05:09:02;18.60;38.30
32753;DHT22;19121;52.428;10.816;2023-02-11T05:11:27;18.60;38.30
32753;DHT22;19121;52.428;10.816;2023-02-11T05:13:53;18.60;38.30
32753;DHT22;19121;52.428;10.816;2023-02-11T05:16:18;18.50;38.20
32753;DHT22;19121;52.428;10.816;2023-02-11T05:18:44;18.50;38.20
32753;DHT22;19121;52.428;10.816;2023-02-11T05:21:11;18.50;38.20
32753;DHT22;19121;52.428;10.816;2023-02-11T05:23:36;18.50;38.30
32753;DHT22;19121;52.428;10.816;2023-02-11T05:26:02;18.50;38.30
32753;DHT22;19121;52.428;10.816;2023-02-11T05:28:28;18.50;38.20
32753;DHT22;19121;52.428;10.816;2023-02-11T05:30:54;18.50;38.30
32753;DHT22;19121;52.428;10.816;2023-02-11T05:33:19;18.50;38.30
32753;DHT22;19121;52.428;10.816;2023-02-11T05:35:45;18.50;38.30
32753;DHT22;19121;52.428;10.816;2023-02-11T05:38:10;18.50;38.30
32753;DHT22;19121;52.428;10.816;2023-02-11T05:40:35;18.50;38.30
32753;DHT22;19121;52.428;10.816;2023-02-11T05:43:01;18.50;38.30
32753;DHT22;19121;52.428;10.816;2023-02-11T05:45:26;18.50;38.30
32753;DHT22;19121;52.428;10.816;2023-02-11T05:47:52;18.50;39.00
32753;DHT22;19121;52.428;10.816;2023-02-11T05:50:17;18.50;38.30
32753;DHT22;19121;52.428;10.816;2023-02-11T05:52:43;18.50;38.30
32753;DHT22;19121;52.428;10.816;2023-02-11T05:55:08;18.50;38.40
32753;DHT22;19121;52.428;10.816;2023-02-11T05:57:34;18.50;38.40
32753;DHT22;19121;52.428;10.816;2023-02-11T05:59:59;18.50;38.40
32753;DHT22;19121;52.428;10.816;2023-02-11T06:02:24;18.50;38.40
32753;DHT22;19121;52.428;10.816;2023-02-11T06:04:50;18.50;38.40
32753;DHT22;19121;52.428;10.816;2023-02-11T06:07:15;18.50;38.40
32753;DHT22;19121;52.428;10.816;2023-02-11T06:09:41;18.50;38.40
32753;DHT22;19121;52.428;10.816;2023-02-11T06:12:07;18.50;38.50
32753;DHT22;19121;52.428;10.816;2023-02-11T06:14:32;18.50;38.50
32753;DHT22;19121;52.428;10.816;2023-02-11T06:16:58;18.50;38.50
32753;DHT22;19121;52.428;10.816;2023-02-11T06:19:24;18.50;38.50
32753;DHT22;19121;52.428;10.816;2023-02-11T06:21:49;18.60;38.50
32753;DHT22;19121;52.428;10.816;2023-02-11T06:24:15;18.60;38.40
32753;DHT22;19121;52.428;10.816;2023-02-11T06:26:40;18.60;38.40
32753;DHT22;19121;52.428;10.816;2023-02-11T06:29:06;18.70;38.40
32753;DHT22;19121;52.428;10.816;2023-02-11T06:31:31;18.60;38.20
32753;DHT22;19121;52.428;10.816;2023-02-11T06:33:56;18.70;38.30
32753;DHT22;19121;52.428;10.816;2023-02-11T06:36:23;18.70;38.20
32753;DHT22;19121;52.428;10.816;2023-02-11T06:38:48;18.70;38.20
32753;DHT22;19121;52.428;10.816;2023-02-11T06:41:15;18.70;38.20
32753;DHT22;19121;52.428;10.816;2023-02-11T06:43:41;18.80;38.20
32753;DHT22;19121;52.428;10.816;2023-02-11T06:46:07;18.80;38.20
32753;DHT22;19121;52.428;10.816;2023-02-11T06:48:33;18.80;38.20
32753;DHT22;19121;52.428;10.816;2023-02-11T06:51:02;18.80;38.20
32753;DHT22;19121;52.428;10.816;2023-02-11T06:53:29;18.80;38.20
32753;DHT22;19121;52.428;10.816;2023-02-11T06:55:54;18.80;38.20
32753;DHT22;19121;52.428;10.816;2023-02-11T06:58:20;18.80;38.10
32753;DHT22;19121;52.428;10.816;2023-02-11T07:00:45;18.80;38.10
32753;DHT22;19121;52.428;10.816;2023-02-11T07:03:10;18.80;38.20
32753;DHT22;19121;52.428;10.816;2023-02-11T07:05:36;18.80;38.10
32753;DHT22;19121;52.428;10.816;2023-02-11T07:08:03;18.90;38.20
32753;DHT22;19121;52.428;10.816;2023-02-11T07:10:28;18.90;38.20
32753;DHT22;19121;52.428;10.816;2023-02-11T07:12:53;18.90;38.20
32753;DHT22;19121;52.428;10.816;2023-02-11T07:15:19;18.90;38.80
32753;DHT22;19121;52.428;10.816;2023-02-11T07:17:44;18.90;38.10
32753;DHT22;19121;52.428;10.816;2023-02-11T07:20:10;18.90;38.20
32753;DHT22;19121;52.428;10.816;2023-02-11T07:22:38;18.90;38.20
32753;DHT22;19121;52.428;10.816;2023-02-11T07:25:04;18.90;38.10
32753;DHT22;19121;52.428;10.816;2023-02-11T07:27:29;18.90;38.10
32753;DHT22;19121;52.428;10.816;2023-02-11T07:29:55;18.90;38.10
32753;DHT22;19121;52.428;10.816;2023-02-11T07:32:20;18.90;38.10
32753;DHT22;19121;52.428;10.816;2023-02-11T07:34:46;18.90;38.10
32753;DHT22;19121;52.428;10.816;2023-02-11T07:37:12;18.90;38.10
32753;DHT22;19121;52.428;10.816;2023-02-11T07:39:37;19.00;38.10
32753;DHT22;19121;52.428;10.816;2023-02-11T07:42:03;19.00;38.10
32753;DHT22;19121;52.428;10.816;2023-02-11T07:44:28;19.00;38.10
32753;DHT22;19121;52.428;10.816;2023-02-11T07:46:54;19.00;38.10
32753;DHT22;19121;52.428;10.816;2023-02-11T07:49:19;19.00;38.10
32753;DHT22;19121;52.428;10.816;2023-02-11T07:51:45;19.00;38.10
32753;DHT22;19121;52.428;10.816;2023-02-11T07:54:11;19.00;38.10
32753;DHT22;19121;52.428;10.816;2023-02-11T07:56:36;19.00;38.10
32753;DHT22;19121;52.428;10.816;2023-02-11T07:59:02;19.00;38.10
32753;DHT22;19121;52.428;10.816;2023-02-11T08:01:28;19.00;38.10
32753;DHT22;19121;52.428;10.816;2023-02-11T08:03:54;19.00;38.00
32753;DHT22;19121;52.428;10.816;2023-02-11T08:06:21;19.00;38.10
32753;DHT22;19121;52.428;10.816;2023-02-11T08:08:46;19.00;38.10
32753;DHT22;19121;52.428;10.816;2023-02-11T08:11:16;19.10;38.10
32753;DHT22;19121;52.428;10.816;2023-02-11T08:13:42;19.10;38.10
32753;DHT22;19121;52.428;10.816;2023-02-11T08:16:07;19.10;38.10
32753;DHT22;19121;52.428;10.816;2023-02-11T08:18:34;19.10;38.00
32753;DHT22;19121;52.428;10.816;2023-02-11T08:21:04;19.10;38.00
32753;DHT22;19121;52.428;10.816;2023-02-11T08:23:30;19.10;38.00
32753;DHT22;19121;52.428;10.816;2023-02-11T08:25:59;19.10;38.00
32753;DHT22;19121;52.428;10.816;2023-02-11T08:28:24;19.10;38.00
32753;DHT22;19121;52.428;10.816;2023-02-11T08:30:50;19.10;38.00
32753;DHT22;19121;52.428;10.816;2023-02-11T08:33:15;19.10;38.00
32753;DHT22;19121;52.428;10.816;2023-02-11T08:35:41;19.10;38.00
32753;DHT22;19121;52.428;10.816;2023-02-11T08:38:06;19.10;38.00
32753;DHT22;19121;52.428;10.816;2023-02-11T08:40:31;19.10;38.00
32753;DHT22;19121;52.428;10.816;2023-02-11T08:42:57;19.10;38.00
32753;DHT22;19121;52.428;10.816;2023-02-11T08:45:23;19.10;38.00
32753;DHT22;19121;52.428;10.816;2023-02-11T08:47:48;19.20;38.00
32753;DHT22;19121;52.428;10.816;2023-02-11T08:50:13;19.20;38.00
32753;DHT22;19121;52.428;10.816;2023-02-11T08:52:39;19.20;38.00
32753;DHT22;19121;52.428;10.816;2023-02-11T08:55:04;19.20;38.00
32753;DHT22;19121;52.428;10.816;2023-02-11T08:57:30;19.20;38.00
32753;DHT22;19121;52.428;10.816;2023-02-11T08:59:55;19.20;38.00
32753;DHT22;19121;52.428;10.816;2023-02-11T09:02:21;19.20;38.00
32753;DHT22;19121;52.428;10.816;2023-02-11T09:04:46;19.20;38.00
32753;DHT22;19121;52.428;10.816;2023-02-11T09:07:11;19.20;38.00
32753;DHT22;19121;52.428;10.816;2023-02-11T09:09:37;19.20;38.00
32753;DHT22;19121;52.428;10.816;2023-02-11T09:12:02;19.20;38.00
32753;DHT22;19121;52.428;10.816;2023-02-11T09:14:28;19.20;38.00
32753;DHT22;19121;52.428;10.816;2023-02-11T09:16:53;19.20;38.00
32753;DHT22;19121;52.428;10.816;2023-02-11T09:19:19;19.20;38.00
32753;DHT22;19121;52.428;10.816;2023-02-11T09:21:45;19.20;38.00
32753;DHT22;19121;52.428;10.816;2023-02-11T09:24:11;19.20;38.00
32753;DHT22;19121;52.428;10.816;2023-02-11T09:26:36;19.20;38.00
32753;DHT22;19121;52.428;10.816;2023-02-11T09:29:03;19.20;38.00
32753;DHT22;19121;52.428;10.816;2023-02-11T09:31:30;19.30;38.00
32753;DHT22;19121;52.428;10.816;2023-02-11T09:33:57;19.20;38.00
32753;DHT22;19121;52.428;10.816;2023-02-11T09:36:24;19.30;38.00
32753;DHT22;19121;52.428;10.816;2023-02-11T09:38:50;19.30;38.00
32753;DHT22;19121;52.428;10.816;2023-02-11T09:41:24;19.30;38.00
32753;DHT22;19121;52.428;10.816;2023-02-11T09:43:55;19.30;38.00
32753;DHT22;19121;52.428;10.816;2023-02-11T09:46:21;19.30;38.00
32753;DHT22;19121;52.428;10.816;2023-02-11T09:48:49;19.30;38.00
32753;DHT22;19121;52.428;10.816;2023-02-11T09:51:18;19.30;38.00
32753;DHT22;19121;52.428;10.816;2023-02-11T09:53:44;19.30;38.00
32753;DHT22;19121;52.428;10.816;2023-02-11T09:56:12;19.30;38.00
32753;DHT22;19121;52.428;10.816;2023-02-11T09:58:41;19.30;38.00
32753;DHT22;19121;52.428;10.816;2023-02-11T10:01:15;19.30;38.00
32753;DHT22;19121;52.428;10.816;2023-02-11T10:03:48;19.40;38.00
32753;DHT22;19121;52.428;10.816;2023-02-11T10:06:27;19.40;38.00
32753;DHT22;19121;52.428;10.816;2023-02-11T10:16:43;19.40;38.00
32753;DHT22;19121;52.428;10.816;2023-02-11T10:21:59;19.40;38.00
32753;DHT22;19121;52.428;10.816;2023-02-11T10:24:27;19.40;38.00
32753;DHT22;19121;52.428;10.816;2023-02-11T10:26:53;19.40;38.00
32753;DHT22;19121;52.428;10.816;2023-02-11T10:29:35;19.40;38.10
32753;DHT22;19121;52.428;10.816;2023-02-11T10:32:03;19.40;38.00
32753;DHT22;19121;52.428;10.816;2023-02-11T10:34:30;19.40;38.00
32753;DHT22;19121;52.428;10.816;2023-02-11T10:36:55;19.40;38.00
32753;DHT22;19121;52.428;10.816;2023-02-11T10:39:21;19.40;38.00
32753;DHT22;19121;52.428;10.816;2023-02-11T10:41:55;19.40;38.00
32753;DHT22;19121;52.428;10.816;2023-02-11T10:44:23;19.40;38.00
32753;DHT22;19121;52.428;10.816;2023-02-11T10:46:49;19.40;38.00
32753;DHT22;19121;52.428;10.816;2023-02-11T10:49:33;19.40;38.00
32753;DHT22;19121;52.428;10.816;2023-02-11T10:57:40;19.50;38.10
32753;DHT22;19121;52.428;10.816;2023-02-11T11:02:54;19.50;38.10
32753;DHT22;19121;52.428;10.816;2023-02-11T11:05:23;19.50;38.10
32753;DHT22;19121;52.428;10.816;2023-02-11T11:07:55;19.50;38.10
32753;DHT22;19121;52.428;10.816;2023-02-11T11:11:04;19.50;38.10
32753;DHT22;19121;52.428;10.816;2023-02-11T11:13:22;19.50;38.10
32753;DHT22;19121;52.428;10.816;2023-02-11T11:15:48;19.50;38.10
32753;DHT22;19121;52.428;10.816;2023-02-11T11:18:30;19.50;38.10
32753;DHT22;19121;52.428;10.816;2023-02-11T11:20:57;19.60;38.10
32753;DHT22;19121;52.428;10.816;2023-02-11T11:23:23;19.50;38.10
32753;DHT22;19121;52.428;10.816;2023-02-11T11:28:27;19.50;38.10
32753;DHT22;19121;52.428;10.816;2023-02-11T11:30:53;19.50;38.10
32753;DHT22;19121;52.428;10.816;2023-02-11T11:33:27;19.50;38.10
32753;DHT22;19121;52.428;10.816;2023-02-11T11:35:58;19.50;38.10
32753;DHT22;19121;52.428;10.816;2023-02-11T11:38:23;19.50;38.10
32753;DHT22;19121;52.428;10.816;2023-02-11T11:41:11;19.50;38.10
32753;DHT22;19121;52.428;10.816;2023-02-11T11:43:35;19.50;38.10
32753;DHT22;19121;52.428;10.816;2023-02-11T11:46:01;19.50;38.10
32753;DHT22;19121;52.428;10.816;2023-02-11T11:48:31;19.50;38.10
32753;DHT22;19121;52.428;10.816;2023-02-11T11:51:00;19.50;38.10
32753;DHT22;19121;52.428;10.816;2023-02-11T11:53:46;19.60;38.10
32753;DHT22;19121;52.428;10.816;2023-02-11T11:56:16;19.60;38.20
32753;DHT22;19121;52.428;10.816;2023-02-11T11:58:42;19.60;38.20
32753;DHT22;19121;52.428;10.816;2023-02-11T12:06:36;19.60;38.20
32753;DHT22;19121;52.428;10.816;2023-02-11T12:11:52;19.60;38.20
32753;DHT22;19121;52.428;10.816;2023-02-11T12:14:36;19.60;38.20
32753;DHT22;19121;52.428;10.816;2023-02-11T12:24:47;19.60;38.10
32753;DHT22;19121;52.428;10.816;2023-02-11T12:30:01;19.60;38.20
32753;DHT22;19121;52.428;10.816;2023-02-11T12:40:25;19.60;38.20
32753;DHT22;19121;52.428;10.816;2023-02-11T12:43:12;19.70;38.20
32753;DHT22;19121;52.428;10.816;2023-02-11T12:53:44;19.70;38.20
32753;DHT22;19121;52.428;10.816;2023-02-11T12:56:17;19.70;38.20
32753;DHT22;19121;52.428;10.816;2023-02-11T12:58:45;19.70;38.20
32753;DHT22;19121;52.428;10.816;2023-02-11T13:01:14;19.70;38.80
32753;DHT22;19121;52.428;10.816;2023-02-11T13:03:46;19.70;38.20
32753;DHT22;19121;52.428;10.816;2023-02-11T13:06:47;19.70;38.20
32753;DHT22;19121;52.428;10.816;2023-02-11T13:09:04;19.70;38.20
32753;DHT22;19121;52.428;10.816;2023-02-11T13:11:39;19.70;38.20
32753;DHT22;19121;52.428;10.816;2023-02-11T13:14:15;19.70;38.20
32753;DHT22;19121;52.428;10.816;2023-02-11T13:16:46;19.70;38.20
32753;DHT22;19121;52.428;10.816;2023-02-11T13:19:26;19.70;38.20
32753;DHT22;19121;52.428;10.816;2023-02-11T13:22:01;19.70;38.20
32753;DHT22;19121;52.428;10.816;2023-02-11T13:24:30;19.70;38.20
32753;DHT22;19121;52.428;10.816;2023-02-11T13:27:09;19.70;38.20
32753;DHT22;19121;52.428;10.816;2023-02-11T13:29:54;19.70;38.20
32753;DHT22;19121;52.428;10.816;2023-02-11T13:32:27;19.70;38.20
32753;DHT22;19121;52.428;10.816;2023-02-11T13:35:26;19.70;38.20
32753;DHT22;19121;52.428;10.816;2023-02-11T13:37:52;19.70;38.20
32753;DHT22;19121;52.428;10.816;2023-02-11T13:42:50;19.80;38.20
32753;DHT22;19121;52.428;10.816;2023-02-11T13:45:17;19.80;38.30
32753;DHT22;19121;52.428;10.816;2023-02-11T13:47:49;19.80;38.20
32753;DHT22;19121;52.428;10.816;2023-02-11T13:50:20;19.80;38.30
32753;DHT22;19121;52.428;10.816;2023-02-11T13:52:46;19.80;38.30
32753;DHT22;19121;52.428;10.816;2023-02-11T13:57:37;19.70;38.80
32753;DHT22;19121;52.428;10.816;2023-02-11T14:02:34;19.80;38.20
32753;DHT22;19121;52.428;10.816;2023-02-11T14:05:31;19.80;38.20
32753;DHT22;19121;52.428;10.816;2023-02-11T14:11:10;19.80;38.30
32753;DHT22;19121;52.428;10.816;2023-02-11T14:16:20;19.80;38.20
32753;DHT22;19121;52.428;10.816;2023-02-11T14:23:49;19.80;38.20
32753;DHT22;19121;52.428;10.816;2023-02-11T14:31:28;19.80;38.20
32753;DHT22;19121;52.428;10.816;2023-02-11T14:39:40;19.80;38.20
32753;DHT22;19121;52.428;10.816;2023-02-11T14:42:15;19.80;38.30
32753;DHT22;19121;52.428;10.816;2023-02-11T14:44:43;19.80;38.20
32753;DHT22;19121;52.428;10.816;2023-02-11T14:47:10;19.80;38.20
32753;DHT22;19121;52.428;10.816;2023-02-11T14:49:39;19.80;38.20
32753;DHT22;19121;52.428;10.816;2023-02-11T14:52:06;19.80;38.20
32753;DHT22;19121;52.428;10.816;2023-02-11T14:54:34;19.80;38.20
32753;DHT22;19121;52.428;10.816;2023-02-11T14:57:07;19.80;38.20
32753;DHT22;19121;52.428;10.816;2023-02-11T14:59:32;19.80;38.20
32753;DHT22;19121;52.428;10.816;2023-02-11T15:01:58;19.80;38.20
32753;DHT22;19121;52.428;10.816;2023-02-11T15:04:25;19.80;38.30
32753;DHT22;19121;52.428;10.816;2023-02-11T15:06:50;19.80;38.20
32753;DHT22;19121;52.428;10.816;2023-02-11T15:09:17;19.80;38.20
32753;DHT22;19121;52.428;10.816;2023-02-11T15:11:44;19.80;38.30
32753;DHT22;19121;52.428;10.816;2023-02-11T15:14:24;19.80;38.30
32753;DHT22;19121;52.428;10.816;2023-02-11T15:16:51;19.80;38.30
32753;DHT22;19121;52.428;10.816;2023-02-11T15:19:25;19.80;38.30
32753;DHT22;19121;52.428;10.816;2023-02-11T15:21:53;19.80;38.30
32753;DHT22;19121;52.428;10.816;2023-02-11T15:24:25;19.80;38.20
32753;DHT22;19121;52.428;10.816;2023-02-11T15:26:58;19.80;38.20
32753;DHT22;19121;52.428;10.816;2023-02-11T15:29:24;19.80;38.20
32753;DHT22;19121;52.428;10.816;2023-02-11T15:32:04;19.80;38.90
32753;DHT22;19121;52.428;10.816;2023-02-11T15:34:31;19.80;38.20
32753;DHT22;19121;52.428;10.816;2023-02-11T15:36:56;19.80;38.30
32753;DHT22;19121;52.428;10.816;2023-02-11T15:41:54;19.80;38.30
32753;DHT22;19121;52.428;10.816;2023-02-11T15:44:29;19.90;38.30
32753;DHT22;19121;52.428;10.816;2023-02-11T15:46:55;19.80;38.30
32753;DHT22;19121;52.428;10.816;2023-02-11T15:49:20;19.80;38.30
32753;DHT22;19121;52.428;10.816;2023-02-11T15:51:47;19.80;38.30
32753;DHT22;19121;52.428;10.816;2023-02-11T15:54:17;19.80;38.30
32753;DHT22;19121;52.428;10.816;2023-02-11T15:56:44;19.80;38.30
32753;DHT22;19121;52.428;10.816;2023-02-11T15:59:30;19.80;38.30
32753;DHT22;19121;52.428;10.816;2023-02-11T16:02:03;19.80;38.30
32753;DHT22;19121;52.428;10.816;2023-02-11T16:04:29;19.80;38.40
32753;DHT22;19121;52.428;10.816;2023-02-11T16:06:55;19.80;38.40
32753;DHT22;19121;52.428;10.816;2023-02-11T16:09:25;19.80;38.30
32753;DHT22;19121;52.428;10.816;2023-02-11T16:11:55;19.80;38.30
32753;DHT22;19121;52.428;10.816;2023-02-11T16:14:26;19.80;38.30
32753;DHT22;19121;52.428;10.816;2023-02-11T16:16:53;19.90;38.40
32753;DHT22;19121;52.428;10.816;2023-02-11T16:19:19;19.80;38.30
32753;DHT22;19121;52.428;10.816;2023-02-11T16:21:45;19.80;38.40
32753;DHT22;19121;52.428;10.816;2023-02-11T16:24:16;19.80;38.40
32753;DHT22;19121;52.428;10.816;2023-02-11T16:26:45;19.80;38.40
32753;DHT22;19121;52.428;10.816;2023-02-11T16:29:12;19.80;38.40
32753;DHT22;19121;52.428;10.816;2023-02-11T16:31:45;19.80;38.40
32753;DHT22;19121;52.428;10.816;2023-02-11T16:36:39;19.80;38.40
32753;DHT22;19121;52.428;10.816;2023-02-11T16:39:05;19.80;38.40
32753;DHT22;19121;52.428;10.816;2023-02-11T16:41:30;19.80;38.40
32753;DHT22;19121;52.428;10.816;2023-02-11T16:43:56;19.80;38.40
32753;DHT22;19121;52.428;10.816;2023-02-11T16:46:22;19.80;38.40
32753;DHT22;19121;52.428;10.816;2023-02-11T16:48:48;19.90;38.40
32753;DHT22;19121;52.428;10.816;2023-02-11T16:51:13;19.80;38.40
32753;DHT22;19121;52.428;10.816;2023-02-11T16:53:38;19.80;38.40
32753;DHT22;19121;52.428;10.816;2023-02-11T16:56:04;19.80;38.40
32753;DHT22;19121;52.428;10.816;2023-02-11T16:58:29;19.80;38.40
32753;DHT22;19121;52.428;10.816;2023-02-11T17:00:55;19.90;38.40
32753;DHT22;19121;52.428;10.816;2023-02-11T17:03:22;19.80;38.40
32753;DHT22;19121;52.428;10.816;2023-02-11T17:05:48;19.80;38.40
32753;DHT22;19121;52.428;10.816;2023-02-11T17:08:14;19.90;38.40
32753;DHT22;19121;52.428;10.816;2023-02-11T17:10:39;19.90;38.40
32753;DHT22;19121;52.428;10.816;2023-02-11T17:13:05;19.90;38.40
32753;DHT22;19121;52.428;10.816;2023-02-11T17:15:30;19.80;38.40
32753;DHT22;19121;52.428;10.816;2023-02-11T17:17:56;19.90;38.50